Time;durP1;ratioP1;P1;durP2;ratioP2;P2;SDS_P1;SDS_P2;PMS_P1;PMS_P2;Temp;Humidity;BMP_temperature;BMP_pressure;BME280_temperature;BME280_humidity;BME280_pressure;Samples;Min_cycle;Max_cycle;Signal;HPM_P1;HPM_P2
2023/06/06 00:00:41;;;;;;;6.28;2.85;;;13.00;1.00;;;;;;20828261;28;20040;-42
2023/06/06 00:10:42;;;;;;;5.32;2.60;;;12.90;1.00;;;;;;20825572;28;20048;-42
2023/06/06 00:20:43;;;;;;;6.43;2.75;;;12.80;1.00;;;;;;20823943;28;20040;-43
2023/06/06 00:30:44;;;;;;;4.93;3.17;;;12.70;1.00;;;;;;20821408;28;20042;-43
2023/06/06 00:40:45;;;;;;;5.28;2.50;;;12.60;1.00;;;;;;20822993;28;20033;-41
2023/06/06 00:50:47;;;;;;;5.18;3.28;;;12.60;1.00;;;;;;20819685;28;20041;-41
2023/06/06 01:00:49;;;;;;;5.70;2.72;;;12.50;1.00;;;;;;20821075;28;20033;-42
2023/06/06 01:10:53;;;;;;;6.50;2.85;;;12.40;1.00;;;;;;20814433;28;20484;-41
2023/06/06 01:20:55;;;;;;;5.80;2.67;;;12.30;1.00;;;;;;20815568;28;20040;-41
2023/06/06 01:30:56;;;;;;;5.65;2.75;;;12.20;1.00;;;;;;20818633;28;20045;-41
2023/06/06 01:41:00;;;;;;;5.53;2.13;;;12.20;1.00;;;;;;20816852;28;20493;-41
2023/06/06 01:51:02;;;;;;;5.22;2.65;;;12.20;1.00;;;;;;20826309;28;20048;-41
2023/06/06 02:01:03;;;;;;;6.45;1.75;;;12.10;1.00;;;;;;20834764;28;20033;-42
2023/06/06 02:11:04;;;;;;;3.70;1.80;;;12.10;1.00;;;;;;20832519;28;20753;-42
2023/06/06 02:21:05;;;;;;;4.07;1.85;;;12.10;1.00;;;;;;20826210;28;20033;-42
2023/06/06 02:31:06;;;;;;;5.05;2.50;;;12.00;1.00;;;;;;20818336;28;20045;-42
2023/06/06 02:41:07;;;;;;;8.80;2.95;;;12.00;1.00;;;;;;20821985;28;20044;-41
2023/06/06 02:51:08;;;;;;;7.15;2.10;;;11.90;1.00;;;;;;20821395;28;20045;-41
2023/06/06 03:01:12;;;;;;;3.65;1.95;;;12.00;1.00;;;;;;20815754;28;20036;-41
2023/06/06 03:11:13;;;;;;;3.83;2.15;;;12.00;1.00;;;;;;20818371;28;20053;-41
2023/06/06 03:21:14;;;;;;;5.63;2.42;;;12.00;1.00;;;;;;20820666;28;20040;-42
2023/06/06 03:31:15;;;;;;;6.20;2.35;;;11.90;1.00;;;;;;20812434;28;20037;-42
2023/06/06 03:41:16;;;;;;;5.65;2.85;;;11.80;1.00;;;;;;20813412;28;20334;-42
2023/06/06 03:51:17;;;;;;;5.18;2.38;;;12.00;1.00;;;;;;20813420;28;20045;-41
2023/06/06 04:01:20;;;;;;;4.38;2.03;;;11.90;1.00;;;;;;20816394;28;20045;-41
2023/06/06 04:11:21;;;;;;;11.43;2.95;;;11.90;1.00;;;;;;20813262;28;20404;-41
2023/06/06 04:21:22;;;;;;;5.47;2.45;;;12.00;1.00;;;;;;20801856;28;20043;-42
2023/06/06 04:31:25;;;;;;;3.97;1.70;;;12.00;1.00;;;;;;20803589;28;20532;-42
2023/06/06 04:41:26;;;;;;;5.00;2.08;;;12.10;1.00;;;;;;20810760;28;20366;-42
2023/06/06 04:51:33;;;;;;;7.50;3.35;;;12.20;1.00;;;;;;20815429;28;20036;-42
2023/06/06 05:01:36;;;;;;;6.70;3.00;;;12.30;1.00;;;;;;20801709;28;20127;-42
2023/06/06 05:11:37;;;;;;;7.72;2.35;;;12.60;1.00;;;;;;20795200;28;20040;-42
2023/06/06 05:21:38;;;;;;;6.68;2.22;;;12.80;1.00;;;;;;20798714;28;20040;-42
2023/06/06 05:31:39;;;;;;;7.07;1.90;;;13.10;1.00;;;;;;20814008;28;20033;-42
2023/06/06 05:41:40;;;;;;;6.03;1.90;;;13.40;1.00;;;;;;20818944;28;20129;-42
2023/06/06 05:51:41;;;;;;;5.10;2.10;;;13.60;1.00;;;;;;20813406;28;20481;-42
2023/06/06 06:01:44;;;;;;;5.68;2.65;;;13.80;1.00;;;;;;20817863;28;20146;-42
2023/06/06 06:11:45;;;;;;;4.53;2.20;;;14.00;1.00;;;;;;20817411;28;20049;-42
2023/06/06 06:21:46;;;;;;;9.20;2.50;;;14.20;1.00;;;;;;20809863;28;20044;-42
2023/06/06 06:31:47;;;;;;;6.22;1.88;;;14.60;1.00;;;;;;20820409;28;20036;-42
2023/06/06 06:41:48;;;;;;;5.28;2.00;;;14.70;1.00;;;;;;20812186;28;20033;-42
2023/06/06 06:51:51;;;;;;;3.88;1.80;;;14.90;1.00;;;;;;20819470;28;20037;-42
2023/06/06 07:01:52;;;;;;;9.27;3.33;;;15.10;1.00;;;;;;20814986;28;20047;-42
2023/06/06 07:11:53;;;;;;;7.50;2.47;;;15.40;1.00;;;;;;20801356;28;20497;-42
2023/06/06 07:21:56;;;;;;;5.85;2.20;;;15.50;1.00;;;;;;20803299;28;20044;-42
2023/06/06 07:31:57;;;;;;;11.68;3.00;;;15.50;1.00;;;;;;20776019;28;20434;-42
2023/06/06 07:41:58;;;;;;;5.75;2.17;;;15.50;1.00;;;;;;20790575;28;20045;-42
2023/06/06 07:52:00;;;;;;;3.95;1.70;;;15.60;1.00;;;;;;20790499;28;20044;-42
2023/06/06 08:02:01;;;;;;;4.50;1.70;;;15.70;1.00;;;;;;20798928;28;20060;-42
2023/06/06 08:12:05;;;;;;;3.65;1.85;;;15.60;1.00;;;;;;20795527;28;21328;-42
2023/06/06 08:22:06;;;;;;;5.50;2.03;;;15.80;1.00;;;;;;20802608;28;20045;-42
2023/06/06 08:32:30;;;;;;;10.60;2.70;;;15.90;1.00;;;;;;20782451;28;20037;-42
2023/06/06 08:42:52;;;;;;;5.30;2.28;;;16.10;1.00;;;;;;20780573;28;20171;-42
2023/06/06 08:53:14;;;;;;;8.65;2.25;;;16.50;1.00;;;;;;20788328;28;20064;-42
2023/06/06 09:03:43;;;;;;;6.35;2.30;;;16.50;1.00;;;;;;20781936;28;20040;-40
2023/06/06 09:14:04;;;;;;;;;;;16.80;1.00;;;;;;20789795;28;20040;-42
2023/06/06 09:24:26;;;;;;;5.07;1.88;;;17.10;1.00;;;;;;20791618;28;20396;-42
2023/06/06 09:34:48;;;;;;;5.88;2.50;;;17.20;1.00;;;;;;20787754;28;20586;-40
2023/06/06 09:45:20;;;;;;;6.35;2.85;;;17.40;1.00;;;;;;20766523;28;20081;-40
2023/06/06 09:55:42;;;;;;;5.45;2.60;;;17.70;1.00;;;;;;20789622;28;20041;-40
2023/06/06 10:06:05;;;;;;;5.13;2.47;;;17.90;1.00;;;;;;20795754;28;20736;-40
2023/06/06 10:16:27;;;;;;;10.13;3.53;;;18.10;1.00;;;;;;20837643;28;20071;-40
2023/06/06 10:27:06;;;;;;;5.13;2.63;;;18.30;1.00;;;;;;20851952;28;20048;-40
2023/06/06 10:37:27;;;;;;;;;;;18.40;1.00;;;;;;20840640;28;20234;-40
2023/06/06 10:47:48;;;;;;;5.07;2.58;;;18.60;1.00;;;;;;20819883;28;19920;-40
2023/06/06 10:58:17;;;;;;;3.80;1.80;;;18.60;1.00;;;;;;20801906;28;20411;-40
2023/06/06 11:08:54;;;;;;;4.22;1.90;;;18.80;1.00;;;;;;20811507;28;20708;-40
2023/06/06 11:19:19;;;;;;;5.38;2.25;;;19.00;1.00;;;;;;20814953;28;20037;-40
2023/06/06 11:29:41;;;;;;;5.35;2.45;;;19.60;1.00;;;;;;20807921;28;20033;-40
2023/06/06 11:40:09;;;;;;;5.63;2.17;;;19.60;1.00;;;;;;20814846;28;20043;-40
2023/06/06 11:50:30;;;;;;;4.55;2.33;;;19.90;1.00;;;;;;20817109;28;20047;-40
2023/06/06 12:00:56;;;;;;;4.88;2.20;;;19.90;1.00;;;;;;20821529;28;20041;-40
2023/06/06 12:11:31;;;;;;;3.63;2.15;;;20.10;1.00;;;;;;20808524;28;20510;-40
2023/06/06 12:21:52;;;;;;;6.13;2.35;;;20.30;1.00;;;;;;20811717;28;20064;-40
2023/06/06 12:32:18;;;;;;;6.82;2.25;;;20.30;1.00;;;;;;20802849;28;20495;-40
2023/06/06 12:42:39;;;;;;;7.00;2.30;;;20.60;1.00;;;;;;20809566;28;20448;-40
2023/06/06 12:53:02;;;;;;;5.95;2.35;;;20.60;1.00;;;;;;20808047;28;20074;-40
2023/06/06 13:03:24;;;;;;;6.47;2.28;;;20.80;1.00;;;;;;20808690;28;20471;-40
2023/06/06 13:13:47;;;;;;;5.55;2.17;;;20.90;1.00;;;;;;20811236;28;20084;-40
2023/06/06 13:24:08;;;;;;;8.35;3.00;;;20.70;1.00;;;;;;20799826;28;20131;-40
2023/06/06 13:34:30;;;;;;;8.10;2.30;;;20.60;1.00;;;;;;20807991;28;20052;-40
2023/06/06 13:44:51;;;;;;;6.35;2.80;;;20.50;1.00;;;;;;20814803;28;20261;-40
2023/06/06 13:55:13;;;;;;;6.72;2.47;;;20.70;1.00;;;;;;20826414;28;20044;-40
2023/06/06 14:05:35;;;;;;;7.20;3.25;;;20.50;1.00;;;;;;20817336;28;20073;-40
2023/06/06 14:15:56;;;;;;;7.93;2.92;;;20.50;1.00;;;;;;20822046;28;20133;-40
2023/06/06 14:26:21;;;;;;;4.97;2.88;;;20.60;1.00;;;;;;20815460;28;20041;-40
2023/06/06 14:36:43;;;;;;;5.63;2.85;;;20.60;1.00;;;;;;20775841;28;20072;-40
2023/06/06 14:47:08;;;;;;;4.57;2.42;;;20.50;1.00;;;;;;20816205;28;20072;-40
2023/06/06 14:57:29;;;;;;;7.22;3.33;;;20.50;1.00;;;;;;20806790;28;20083;-40
2023/06/06 15:07:51;;;;;;;5.75;2.88;;;20.50;1.00;;;;;;20809320;28;20327;-40
2023/06/06 15:18:12;;;;;;;7.25;3.03;;;20.50;1.00;;;;;;20812623;28;20499;-40
2023/06/06 15:28:33;;;;;;;7.82;3.97;;;20.30;1.00;;;;;;20819567;28;20052;-40
2023/06/06 15:38:56;;;;;;;6.95;2.85;;;20.00;1.00;;;;;;20803311;28;20033;-40
2023/06/06 15:49:18;;;;;;;8.00;3.33;;;19.80;1.00;;;;;;20814296;28;20456;-40
2023/06/06 15:59:39;;;;;;;5.47;2.50;;;19.70;1.00;;;;;;20810182;28;20217;-39
2023/06/06 16:10:00;;;;;;;6.32;2.65;;;19.80;1.00;;;;;;20804292;28;20048;-40
2023/06/06 16:20:22;;;;;;;6.63;2.70;;;19.50;1.00;;;;;;20834117;28;20033;-40
2023/06/06 16:30:43;;;;;;;8.60;3.05;;;19.30;1.00;;;;;;20818178;28;20394;-40
2023/06/06 16:41:04;;;;;;;8.40;3.45;;;19.10;1.00;;;;;;20815983;28;20499;-40
2023/06/06 16:51:26;;;;;;;7.88;2.80;;;19.00;1.00;;;;;;20808210;28;20112;-39
2023/06/06 17:01:47;;;;;;;6.75;3.05;;;18.80;1.00;;;;;;20796112;28;20065;-40
2023/06/06 17:12:09;;;;;;;8.30;3.30;;;18.80;1.00;;;;;;20797616;28;20051;-40
2023/06/06 17:22:30;;;;;;;5.95;2.00;;;18.60;1.00;;;;;;20804683;28;20045;-40
2023/06/06 17:32:52;;;;;;;8.13;3.00;;;18.50;1.00;;;;;;20816950;28;20357;-39
2023/06/06 17:43:14;;;;;;;8.65;3.00;;;18.50;1.00;;;;;;20811052;28;20041;-39
2023/06/06 17:53:36;;;;;;;8.43;2.63;;;18.30;1.00;;;;;;20821443;28;20498;-39
2023/06/06 18:04:02;;;;;;;7.15;2.95;;;18.30;1.00;;;;;;20799176;28;20168;-39
2023/06/06 18:14:23;;;;;;;8.48;3.00;;;18.10;1.00;;;;;;20792866;28;20148;-39
2023/06/06 18:24:45;;;;;;;4.35;2.38;;;17.90;1.00;;;;;;20792614;28;20128;-39
2023/06/06 18:35:08;;;;;;;5.22;2.25;;;18.00;1.00;;;;;;20753596;28;20080;-39
2023/06/06 18:45:30;;;;;;;6.93;2.53;;;18.00;1.00;;;;;;20805579;28;20618;-39
2023/06/06 18:55:51;;;;;;;6.47;3.05;;;17.70;1.00;;;;;;20800600;28;20125;-39
2023/06/06 19:06:13;;;;;;;5.50;2.85;;;17.70;1.00;;;;;;20800598;28;20061;-39
2023/06/06 19:16:35;;;;;;;8.38;3.00;;;17.50;1.00;;;;;;20806143;28;20568;-39
2023/06/06 19:26:56;;;;;;;5.72;2.88;;;17.30;1.00;;;;;;20793287;28;20317;-39
2023/06/06 19:37:17;;;;;;;6.72;2.90;;;17.20;1.00;;;;;;20800172;28;20527;-39
2023/06/06 19:47:41;;;;;;;6.40;3.15;;;17.00;1.00;;;;;;20800199;28;20071;-40
2023/06/06 19:58:02;;;;;;;6.10;2.55;;;16.80;1.00;;;;;;20811252;28;20357;-40
2023/06/06 20:08:27;;;;;;;6.22;2.85;;;16.50;1.00;;;;;;20796883;28;20056;-40
2023/06/06 20:18:49;;;;;;;8.02;2.67;;;16.40;1.00;;;;;;20811330;28;20196;-40
2023/06/06 20:29:10;;;;;;;7.80;2.70;;;16.30;1.00;;;;;;20801237;28;20504;-42
2023/06/06 20:39:38;;;;;;;6.50;3.20;;;16.10;1.00;;;;;;20799560;28;20435;-41
2023/06/06 20:50:00;;;;;;;10.90;3.67;;;16.00;1.00;;;;;;20818998;28;20060;-41
2023/06/06 21:00:21;;;;;;;14.10;3.33;;;15.90;1.00;;;;;;20830158;28;20068;-41
2023/06/06 21:10:43;;;;;;;5.53;2.42;;;15.80;1.00;;;;;;20816658;28;20037;-41
2023/06/06 21:21:04;;;;;;;6.85;2.72;;;15.60;1.00;;;;;;20825061;28;20080;-41
2023/06/06 21:31:25;;;;;;;7.40;3.08;;;15.50;1.00;;;;;;20814572;28;20103;-41
2023/06/06 21:41:47;;;;;;;5.95;2.92;;;15.40;1.00;;;;;;20804903;28;20040;-41
2023/06/06 21:52:08;;;;;;;7.07;3.22;;;15.30;1.00;;;;;;20811845;28;20136;-41
2023/06/06 22:02:29;;;;;;;6.93;2.92;;;15.30;1.00;;;;;;20814319;28;20064;-41
2023/06/06 22:12:51;;;;;;;6.22;2.70;;;15.00;1.00;;;;;;20813854;28;20429;-40
2023/06/06 22:23:14;;;;;;;8.13;3.30;;;15.00;1.00;;;;;;20819121;28;20301;-41
2023/06/06 22:33:36;;;;;;;10.55;3.38;;;15.00;1.00;;;;;;20817330;28;20121;-40
2023/06/06 22:43:57;;;;;;;7.35;2.67;;;14.80;1.00;;;;;;20825772;28;20049;-41
2023/06/06 22:54:18;;;;;;;10.98;3.83;;;14.70;1.00;;;;;;20816344;28;20424;-41
2023/06/06 23:04:40;;;;;;;6.55;2.60;;;14.60;1.00;;;;;;20813923;28;20189;-41
2023/06/06 23:15:01;;;;;;;5.18;2.58;;;14.50;1.00;;;;;;20816452;28;20127;-41
2023/06/06 23:25:23;;;;;;;8.00;3.90;;;14.30;1.00;;;;;;20816595;28;20041;-40
2023/06/06 23:35:44;;;;;;;6.80;2.72;;;14.20;1.00;;;;;;20804557;28;20079;-41
2023/06/06 23:46:05;;;;;;;6.32;2.78;;;14.10;1.00;;;;;;20812213;28;20041;-40
2023/06/06 23:56:27;;;;;;;4.05;2.33;;;13.80;1.00;;;;;;20807588;28;20405;-41
